sensor_id;sensor_type;location;lat;lon;timestamp;P1;durP1;ratioP1;P2;durP2;ratioP2
2838;SDS011;1427;48.510;9.060;2024-02-21T00:00:27;45.57;;;2.20;;
2838;SDS011;1427;48.510;9.060;2024-02-21T00:02:55;45.37;;;1.80;;
2838;SDS011;1427;48.510;9.060;2024-02-21T00:05:26;47.30;;;2.23;;
2838;SDS011;1427;48.510;9.060;2024-02-21T00:07:55;46.30;;;2.60;;
2838;SDS011;1427;48.510;9.060;2024-02-21T00:10:23;45.90;;;2.73;;
2838;SDS011;1427;48.510;9.060;2024-02-21T00:12:51;45.07;;;2.10;;
2838;SDS011;1427;48.510;9.060;2024-02-21T00:15:19;50.30;;;2.47;;
2838;SDS011;1427;48.510;9.060;2024-02-21T00:17:49;45.40;;;2.00;;
2838;SDS011;1427;48.510;9.060;2024-02-21T00:20:17;44.90;;;1.90;;
2838;SDS011;1427;48.510;9.060;2024-02-21T00:22:45;45.20;;;2.30;;
2838;SDS011;1427;48.510;9.060;2024-02-21T00:25:13;45.00;;;2.10;;
2838;SDS011;1427;48.510;9.060;2024-02-21T00:27:42;44.90;;;1.63;;
2838;SDS011;1427;48.510;9.060;2024-02-21T00:30:10;48.07;;;3.30;;
2838;SDS011;1427;48.510;9.060;2024-02-21T00:32:39;46.60;;;2.43;;
2838;SDS011;1427;48.510;9.060;2024-02-21T00:35:09;45.33;;;2.47;;
2838;SDS011;1427;48.510;9.060;2024-02-21T00:37:37;48.63;;;3.83;;
2838;SDS011;1427;48.510;9.060;2024-02-21T00:40:06;46.80;;;4.47;;
2838;SDS011;1427;48.510;9.060;2024-02-21T00:42:34;45.07;;;1.80;;
2838;SDS011;1427;48.510;9.060;2024-02-21T00:45:03;45.07;;;1.60;;
2838;SDS011;1427;48.510;9.060;2024-02-21T00:47:33;44.87;;;1.73;;
2838;SDS011;1427;48.510;9.060;2024-02-21T00:50:01;45.73;;;2.20;;
2838;SDS011;1427;48.510;9.060;2024-02-21T00:52:33;45.27;;;1.93;;
2838;SDS011;1427;48.510;9.060;2024-02-21T00:55:02;45.00;;;1.77;;
2838;SDS011;1427;48.510;9.060;2024-02-21T00:57:31;50.97;;;2.20;;
2838;SDS011;1427;48.510;9.060;2024-02-21T00:59:59;46.67;;;2.30;;
2838;SDS011;1427;48.510;9.060;2024-02-21T01:02:27;48.50;;;2.47;;
2838;SDS011;1427;48.510;9.060;2024-02-21T01:04:57;45.57;;;2.27;;
2838;SDS011;1427;48.510;9.060;2024-02-21T01:07:25;48.07;;;2.83;;
2838;SDS011;1427;48.510;9.060;2024-02-21T01:09:55;45.33;;;2.20;;
2838;SDS011;1427;48.510;9.060;2024-02-21T01:12:23;47.47;;;2.07;;
2838;SDS011;1427;48.510;9.060;2024-02-21T01:14:51;45.40;;;2.23;;
2838;SDS011;1427;48.510;9.060;2024-02-21T01:17:19;44.97;;;1.73;;
2838;SDS011;1427;48.510;9.060;2024-02-21T01:19:47;46.47;;;2.37;;
2838;SDS011;1427;48.510;9.060;2024-02-21T01:22:15;47.83;;;6.30;;
2838;SDS011;1427;48.510;9.060;2024-02-21T01:24:44;46.10;;;2.57;;
2838;SDS011;1427;48.510;9.060;2024-02-21T01:27:13;45.60;;;2.23;;
2838;SDS011;1427;48.510;9.060;2024-02-21T01:29:41;47.67;;;2.00;;
2838;SDS011;1427;48.510;9.060;2024-02-21T01:32:09;52.50;;;5.03;;
2838;SDS011;1427;48.510;9.060;2024-02-21T01:34:37;45.03;;;2.13;;
2838;SDS011;1427;48.510;9.060;2024-02-21T01:37:05;46.10;;;2.40;;
2838;SDS011;1427;48.510;9.060;2024-02-21T01:39:33;46.00;;;2.23;;
2838;SDS011;1427;48.510;9.060;2024-02-21T01:42:02;45.70;;;2.37;;
2838;SDS011;1427;48.510;9.060;2024-02-21T01:44:31;46.60;;;2.53;;
2838;SDS011;1427;48.510;9.060;2024-02-21T01:46:59;45.30;;;2.17;;
2838;SDS011;1427;48.510;9.060;2024-02-21T01:49:27;45.27;;;2.53;;
2838;SDS011;1427;48.510;9.060;2024-02-21T01:51:55;45.30;;;1.87;;
2838;SDS011;1427;48.510;9.060;2024-02-21T01:54:24;44.97;;;1.57;;
2838;SDS011;1427;48.510;9.060;2024-02-21T01:56:55;46.53;;;1.73;;
2838;SDS011;1427;48.510;9.060;2024-02-21T01:59:23;46.20;;;1.93;;
2838;SDS011;1427;48.510;9.060;2024-02-21T02:01:53;45.30;;;2.20;;
2838;SDS011;1427;48.510;9.060;2024-02-21T02:04:22;45.77;;;2.47;;
2838;SDS011;1427;48.510;9.060;2024-02-21T02:06:51;44.57;;;1.97;;
2838;SDS011;1427;48.510;9.060;2024-02-21T02:09:21;45.30;;;2.07;;
2838;SDS011;1427;48.510;9.060;2024-02-21T02:11:50;45.47;;;2.03;;
2838;SDS011;1427;48.510;9.060;2024-02-21T02:14:18;45.70;;;2.27;;
2838;SDS011;1427;48.510;9.060;2024-02-21T02:16:47;46.87;;;2.37;;
2838;SDS011;1427;48.510;9.060;2024-02-21T02:19:16;45.33;;;2.07;;
2838;SDS011;1427;48.510;9.060;2024-02-21T02:21:46;45.80;;;2.43;;
2838;SDS011;1427;48.510;9.060;2024-02-21T02:24:21;46.40;;;2.97;;
2838;SDS011;1427;48.510;9.060;2024-02-21T02:26:51;44.70;;;1.80;;
2838;SDS011;1427;48.510;9.060;2024-02-21T02:29:19;44.97;;;1.83;;
2838;SDS011;1427;48.510;9.060;2024-02-21T02:31:47;47.40;;;2.73;;
2838;SDS011;1427;48.510;9.060;2024-02-21T02:34:16;45.27;;;2.20;;
2838;SDS011;1427;48.510;9.060;2024-02-21T02:51:15;49.00;;;3.53;;
2838;SDS011;1427;48.510;9.060;2024-02-21T02:53:43;45.57;;;3.17;;
2838;SDS011;1427;48.510;9.060;2024-02-21T02:56:13;44.93;;;1.90;;
2838;SDS011;1427;48.510;9.060;2024-02-21T02:58:42;45.03;;;1.90;;
2838;SDS011;1427;48.510;9.060;2024-02-21T03:01:10;45.43;;;2.10;;
2838;SDS011;1427;48.510;9.060;2024-02-21T03:03:38;44.50;;;1.70;;
2838;SDS011;1427;48.510;9.060;2024-02-21T03:06:08;45.23;;;1.97;;
2838;SDS011;1427;48.510;9.060;2024-02-21T03:08:36;56.50;;;1.83;;
2838;SDS011;1427;48.510;9.060;2024-02-21T03:11:04;44.57;;;1.60;;
2838;SDS011;1427;48.510;9.060;2024-02-21T03:13:32;46.57;;;2.70;;
2838;SDS011;1427;48.510;9.060;2024-02-21T03:16:00;47.03;;;2.30;;
2838;SDS011;1427;48.510;9.060;2024-02-21T03:18:28;45.87;;;2.73;;
2838;SDS011;1427;48.510;9.060;2024-02-21T03:20:57;45.60;;;1.70;;
2838;SDS011;1427;48.510;9.060;2024-02-21T03:23:26;45.00;;;1.77;;
2838;SDS011;1427;48.510;9.060;2024-02-21T03:25:54;45.50;;;2.63;;
2838;SDS011;1427;48.510;9.060;2024-02-21T03:28:23;45.70;;;2.10;;
2838;SDS011;1427;48.510;9.060;2024-02-21T03:30:51;44.87;;;1.80;;
2838;SDS011;1427;48.510;9.060;2024-02-21T03:33:19;44.30;;;1.60;;
2838;SDS011;1427;48.510;9.060;2024-02-21T03:35:49;44.50;;;2.03;;
2838;SDS011;1427;48.510;9.060;2024-02-21T03:38:17;48.87;;;2.27;;
2838;SDS011;1427;48.510;9.060;2024-02-21T03:40:48;47.07;;;2.70;;
2838;SDS011;1427;48.510;9.060;2024-02-21T03:43:16;45.43;;;2.10;;
2838;SDS011;1427;48.510;9.060;2024-02-21T03:45:44;45.43;;;1.90;;
2838;SDS011;1427;48.510;9.060;2024-02-21T03:48:12;47.23;;;3.30;;
2838;SDS011;1427;48.510;9.060;2024-02-21T03:50:40;46.63;;;2.03;;
2838;SDS011;1427;48.510;9.060;2024-02-21T03:53:08;44.70;;;1.60;;
2838;SDS011;1427;48.510;9.060;2024-02-21T03:55:36;44.87;;;1.50;;
2838;SDS011;1427;48.510;9.060;2024-02-21T03:58:06;46.40;;;2.20;;
2838;SDS011;1427;48.510;9.060;2024-02-21T04:00:34;46.73;;;1.80;;
2838;SDS011;1427;48.510;9.060;2024-02-21T04:03:02;45.93;;;2.40;;
2838;SDS011;1427;48.510;9.060;2024-02-21T04:05:32;44.97;;;1.60;;
2838;SDS011;1427;48.510;9.060;2024-02-21T04:08:02;44.90;;;1.57;;
2838;SDS011;1427;48.510;9.060;2024-02-21T04:10:31;44.57;;;1.70;;
2838;SDS011;1427;48.510;9.060;2024-02-21T04:13:00;49.63;;;2.93;;
2838;SDS011;1427;48.510;9.060;2024-02-21T04:15:29;44.93;;;1.30;;
2838;SDS011;1427;48.510;9.060;2024-02-21T04:17:57;45.13;;;2.27;;
2838;SDS011;1427;48.510;9.060;2024-02-21T04:20:25;46.97;;;2.97;;
2838;SDS011;1427;48.510;9.060;2024-02-21T04:22:53;45.07;;;1.50;;
2838;SDS011;1427;48.510;9.060;2024-02-21T04:25:22;46.20;;;2.73;;
2838;SDS011;1427;48.510;9.060;2024-02-21T04:27:50;44.90;;;1.73;;
2838;SDS011;1427;48.510;9.060;2024-02-21T04:30:19;44.70;;;1.37;;
2838;SDS011;1427;48.510;9.060;2024-02-21T04:32:48;45.37;;;1.77;;
2838;SDS011;1427;48.510;9.060;2024-02-21T04:35:16;47.30;;;2.40;;
2838;SDS011;1427;48.510;9.060;2024-02-21T04:37:44;44.70;;;1.80;;
2838;SDS011;1427;48.510;9.060;2024-02-21T04:40:12;44.87;;;1.80;;
2838;SDS011;1427;48.510;9.060;2024-02-21T04:42:41;45.53;;;1.90;;
2838;SDS011;1427;48.510;9.060;2024-02-21T04:45:09;45.67;;;1.77;;
2838;SDS011;1427;48.510;9.060;2024-02-21T04:47:37;44.80;;;1.50;;
2838;SDS011;1427;48.510;9.060;2024-02-21T04:50:07;44.87;;;1.50;;
2838;SDS011;1427;48.510;9.060;2024-02-21T04:52:36;44.70;;;1.60;;
2838;SDS011;1427;48.510;9.060;2024-02-21T04:55:04;44.87;;;1.60;;
2838;SDS011;1427;48.510;9.060;2024-02-21T04:57:33;45.23;;;1.90;;
2838;SDS011;1427;48.510;9.060;2024-02-21T05:00:02;44.80;;;1.40;;
2838;SDS011;1427;48.510;9.060;2024-02-21T05:02:30;44.63;;;1.60;;
2838;SDS011;1427;48.510;9.060;2024-02-21T05:04:59;47.77;;;2.27;;
2838;SDS011;1427;48.510;9.060;2024-02-21T05:07:29;46.07;;;1.43;;
2838;SDS011;1427;48.510;9.060;2024-02-21T05:09:57;44.97;;;2.07;;
2838;SDS011;1427;48.510;9.060;2024-02-21T05:12:25;45.27;;;2.00;;
2838;SDS011;1427;48.510;9.060;2024-02-21T05:14:53;45.20;;;1.63;;
2838;SDS011;1427;48.510;9.060;2024-02-21T05:17:21;45.03;;;1.60;;
2838;SDS011;1427;48.510;9.060;2024-02-21T05:19:49;44.80;;;1.40;;
2838;SDS011;1427;48.510;9.060;2024-02-21T05:22:17;46.00;;;2.43;;
2838;SDS011;1427;48.510;9.060;2024-02-21T05:24:46;44.87;;;1.53;;
2838;SDS011;1427;48.510;9.060;2024-02-21T05:27:14;44.70;;;1.20;;
2838;SDS011;1427;48.510;9.060;2024-02-21T05:29:42;44.63;;;1.43;;
2838;SDS011;1427;48.510;9.060;2024-02-21T05:32:10;44.50;;;1.50;;
2838;SDS011;1427;48.510;9.060;2024-02-21T05:34:38;47.90;;;2.10;;
2838;SDS011;1427;48.510;9.060;2024-02-21T05:37:07;47.70;;;2.17;;
2838;SDS011;1427;48.510;9.060;2024-02-21T05:39:35;45.17;;;2.17;;
2838;SDS011;1427;48.510;9.060;2024-02-21T05:42:04;44.73;;;1.37;;
2838;SDS011;1427;48.510;9.060;2024-02-21T05:44:32;45.10;;;1.80;;
2838;SDS011;1427;48.510;9.060;2024-02-21T05:47:00;45.90;;;2.40;;
2838;SDS011;1427;48.510;9.060;2024-02-21T05:49:28;46.37;;;2.47;;
2838;SDS011;1427;48.510;9.060;2024-02-21T05:51:57;44.87;;;1.53;;
2838;SDS011;1427;48.510;9.060;2024-02-21T05:54:25;45.27;;;1.90;;
2838;SDS011;1427;48.510;9.060;2024-02-21T05:56:53;45.07;;;1.50;;
2838;SDS011;1427;48.510;9.060;2024-02-21T05:59:22;45.23;;;1.60;;
2838;SDS011;1427;48.510;9.060;2024-02-21T06:01:54;44.90;;;1.53;;
2838;SDS011;1427;48.510;9.060;2024-02-21T06:04:24;46.97;;;2.97;;
2838;SDS011;1427;48.510;9.060;2024-02-21T06:06:52;51.80;;;2.30;;
2838;SDS011;1427;48.510;9.060;2024-02-21T06:09:20;45.27;;;1.70;;
2838;SDS011;1427;48.510;9.060;2024-02-21T06:11:48;45.17;;;1.93;;
2838;SDS011;1427;48.510;9.060;2024-02-21T06:14:16;45.23;;;1.60;;
2838;SDS011;1427;48.510;9.060;2024-02-21T06:16:45;47.53;;;5.90;;
2838;SDS011;1427;48.510;9.060;2024-02-21T06:19:14;47.57;;;5.47;;
2838;SDS011;1427;48.510;9.060;2024-02-21T06:21:42;88.40;;;8.10;;
2838;SDS011;1427;48.510;9.060;2024-02-21T06:24:10;46.07;;;3.53;;
2838;SDS011;1427;48.510;9.060;2024-02-21T06:26:39;49.53;;;4.20;;
2838;SDS011;1427;48.510;9.060;2024-02-21T06:29:07;46.53;;;4.13;;
2838;SDS011;1427;48.510;9.060;2024-02-21T06:31:35;47.30;;;5.20;;
2838;SDS011;1427;48.510;9.060;2024-02-21T06:34:05;48.37;;;4.73;;
2838;SDS011;1427;48.510;9.060;2024-02-21T06:36:33;46.17;;;3.30;;
2838;SDS011;1427;48.510;9.060;2024-02-21T06:39:01;46.60;;;4.40;;
2838;SDS011;1427;48.510;9.060;2024-02-21T06:41:31;46.80;;;4.40;;
2838;SDS011;1427;48.510;9.060;2024-02-21T06:44:00;46.50;;;3.87;;
2838;SDS011;1427;48.510;9.060;2024-02-21T06:46:29;46.70;;;4.73;;
2838;SDS011;1427;48.510;9.060;2024-02-21T06:48:59;46.47;;;4.47;;
2838;SDS011;1427;48.510;9.060;2024-02-21T06:51:31;47.10;;;4.97;;
2838;SDS011;1427;48.510;9.060;2024-02-21T06:54:00;46.60;;;4.17;;
2838;SDS011;1427;48.510;9.060;2024-02-21T06:56:29;46.27;;;4.07;;
2838;SDS011;1427;48.510;9.060;2024-02-21T06:58:57;47.77;;;5.27;;
2838;SDS011;1427;48.510;9.060;2024-02-21T07:01:25;51.07;;;5.60;;
2838;SDS011;1427;48.510;9.060;2024-02-21T07:03:53;46.27;;;3.83;;
2838;SDS011;1427;48.510;9.060;2024-02-21T07:06:21;46.37;;;4.70;;
2838;SDS011;1427;48.510;9.060;2024-02-21T07:08:51;48.23;;;4.40;;
2838;SDS011;1427;48.510;9.060;2024-02-21T07:11:19;62.53;;;5.80;;
2838;SDS011;1427;48.510;9.060;2024-02-21T07:13:47;46.60;;;4.47;;
2838;SDS011;1427;48.510;9.060;2024-02-21T07:16:15;46.80;;;4.87;;
2838;SDS011;1427;48.510;9.060;2024-02-21T07:18:43;47.70;;;5.23;;
2838;SDS011;1427;48.510;9.060;2024-02-21T07:21:11;46.97;;;4.87;;
2838;SDS011;1427;48.510;9.060;2024-02-21T07:23:40;46.70;;;3.47;;
2838;SDS011;1427;48.510;9.060;2024-02-21T07:26:11;47.97;;;5.70;;
2838;SDS011;1427;48.510;9.060;2024-02-21T07:28:39;47.17;;;5.40;;
2838;SDS011;1427;48.510;9.060;2024-02-21T07:31:07;47.10;;;4.73;;
2838;SDS011;1427;48.510;9.060;2024-02-21T07:33:36;48.63;;;4.00;;
2838;SDS011;1427;48.510;9.060;2024-02-21T07:36:05;48.13;;;5.97;;
2838;SDS011;1427;48.510;9.060;2024-02-21T07:38:35;46.73;;;4.17;;
2838;SDS011;1427;48.510;9.060;2024-02-21T07:41:03;49.77;;;7.03;;
2838;SDS011;1427;48.510;9.060;2024-02-21T07:43:32;46.93;;;4.40;;
2838;SDS011;1427;48.510;9.060;2024-02-21T07:46:01;46.30;;;4.03;;
2838;SDS011;1427;48.510;9.060;2024-02-21T07:48:30;46.73;;;4.17;;
2838;SDS011;1427;48.510;9.060;2024-02-21T07:51:00;46.40;;;4.20;;
2838;SDS011;1427;48.510;9.060;2024-02-21T07:53:30;47.67;;;4.67;;
2838;SDS011;1427;48.510;9.060;2024-02-21T07:55:58;47.97;;;5.80;;
2838;SDS011;1427;48.510;9.060;2024-02-21T07:58:26;49.00;;;4.77;;
2838;SDS011;1427;48.510;9.060;2024-02-21T08:00:55;48.77;;;4.17;;
2838;SDS011;1427;48.510;9.060;2024-02-21T08:03:23;49.10;;;5.57;;
2838;SDS011;1427;48.510;9.060;2024-02-21T08:05:52;48.37;;;4.43;;
2838;SDS011;1427;48.510;9.060;2024-02-21T08:08:20;48.70;;;4.83;;
2838;SDS011;1427;48.510;9.060;2024-02-21T08:10:48;47.50;;;4.80;;
2838;SDS011;1427;48.510;9.060;2024-02-21T08:13:16;47.97;;;4.27;;
2838;SDS011;1427;48.510;9.060;2024-02-21T08:15:44;48.40;;;5.23;;
2838;SDS011;1427;48.510;9.060;2024-02-21T08:18:14;52.40;;;5.57;;
2838;SDS011;1427;48.510;9.060;2024-02-21T08:20:42;47.90;;;4.73;;
2838;SDS011;1427;48.510;9.060;2024-02-21T08:23:10;48.00;;;4.20;;
2838;SDS011;1427;48.510;9.060;2024-02-21T08:25:38;49.93;;;4.87;;
2838;SDS011;1427;48.510;9.060;2024-02-21T08:28:06;47.67;;;4.97;;
2838;SDS011;1427;48.510;9.060;2024-02-21T08:30:34;47.60;;;4.33;;
2838;SDS011;1427;48.510;9.060;2024-02-21T08:33:03;50.77;;;5.33;;
2838;SDS011;1427;48.510;9.060;2024-02-21T08:35:32;53.63;;;5.60;;
2838;SDS011;1427;48.510;9.060;2024-02-21T08:38:00;52.03;;;4.70;;
2838;SDS011;1427;48.510;9.060;2024-02-21T08:40:28;46.77;;;3.80;;
2838;SDS011;1427;48.510;9.060;2024-02-21T08:42:56;48.83;;;4.63;;
2838;SDS011;1427;48.510;9.060;2024-02-21T08:45:24;47.67;;;5.30;;
2838;SDS011;1427;48.510;9.060;2024-02-21T08:47:52;46.80;;;4.33;;
2838;SDS011;1427;48.510;9.060;2024-02-21T08:50:20;47.70;;;4.90;;
2838;SDS011;1427;48.510;9.060;2024-02-21T08:52:56;47.60;;;4.60;;
2838;SDS011;1427;48.510;9.060;2024-02-21T08:55:24;49.63;;;4.83;;
2838;SDS011;1427;48.510;9.060;2024-02-21T08:57:52;47.43;;;4.70;;
2838;SDS011;1427;48.510;9.060;2024-02-21T09:00:20;47.70;;;5.03;;
2838;SDS011;1427;48.510;9.060;2024-02-21T09:02:54;47.30;;;4.83;;
2838;SDS011;1427;48.510;9.060;2024-02-21T09:05:23;47.00;;;4.10;;
2838;SDS011;1427;48.510;9.060;2024-02-21T09:07:52;47.30;;;4.57;;
2838;SDS011;1427;48.510;9.060;2024-02-21T09:10:21;47.43;;;4.83;;
2838;SDS011;1427;48.510;9.060;2024-02-21T09:12:50;47.97;;;5.00;;
2838;SDS011;1427;48.510;9.060;2024-02-21T09:15:18;48.50;;;5.80;;
2838;SDS011;1427;48.510;9.060;2024-02-21T09:17:47;53.80;;;5.73;;
2838;SDS011;1427;48.510;9.060;2024-02-21T09:20:35;47.33;;;4.63;;
2838;SDS011;1427;48.510;9.060;2024-02-21T09:23:04;48.87;;;6.27;;
2838;SDS011;1427;48.510;9.060;2024-02-21T09:25:36;49.13;;;4.10;;
2838;SDS011;1427;48.510;9.060;2024-02-21T09:28:04;47.40;;;5.20;;
2838;SDS011;1427;48.510;9.060;2024-02-21T09:30:33;48.20;;;5.60;;
2838;SDS011;1427;48.510;9.060;2024-02-21T09:33:03;48.17;;;5.00;;
2838;SDS011;1427;48.510;9.060;2024-02-21T09:35:42;48.60;;;6.00;;
2838;SDS011;1427;48.510;9.060;2024-02-21T09:38:39;46.80;;;3.83;;
2838;SDS011;1427;48.510;9.060;2024-02-21T09:41:14;47.40;;;5.17;;
2838;SDS011;1427;48.510;9.060;2024-02-21T09:43:51;47.97;;;4.43;;
2838;SDS011;1427;48.510;9.060;2024-02-21T09:46:21;56.67;;;5.00;;
2838;SDS011;1427;48.510;9.060;2024-02-21T09:48:58;47.00;;;4.23;;
2838;SDS011;1427;48.510;9.060;2024-02-21T09:51:37;50.00;;;5.50;;
2838;SDS011;1427;48.510;9.060;2024-02-21T09:54:09;47.47;;;4.20;;
2838;SDS011;1427;48.510;9.060;2024-02-21T09:56:46;58.15;;;7.00;;
2838;SDS011;1427;48.510;9.060;2024-02-21T09:59:24;51.40;;;6.27;;
2838;SDS011;1427;48.510;9.060;2024-02-21T10:01:52;52.57;;;6.20;;
2838;SDS011;1427;48.510;9.060;2024-02-21T10:04:58;49.70;;;5.20;;
2838;SDS011;1427;48.510;9.060;2024-02-21T10:07:27;56.20;;;5.53;;
2838;SDS011;1427;48.510;9.060;2024-02-21T10:10:00;49.97;;;5.17;;
2838;SDS011;1427;48.510;9.060;2024-02-21T10:12:29;56.00;;;6.40;;
2838;SDS011;1427;48.510;9.060;2024-02-21T10:15:01;50.07;;;5.80;;
2838;SDS011;1427;48.510;9.060;2024-02-21T10:17:29;50.20;;;4.90;;
2838;SDS011;1427;48.510;9.060;2024-02-21T10:20:06;49.77;;;5.87;;
2838;SDS011;1427;48.510;9.060;2024-02-21T10:22:35;51.17;;;4.70;;
2838;SDS011;1427;48.510;9.060;2024-02-21T10:25:09;49.67;;;4.60;;
2838;SDS011;1427;48.510;9.060;2024-02-21T10:27:39;51.43;;;4.77;;
2838;SDS011;1427;48.510;9.060;2024-02-21T10:30:12;51.60;;;4.30;;
2838;SDS011;1427;48.510;9.060;2024-02-21T10:32:48;47.43;;;4.27;;
2838;SDS011;1427;48.510;9.060;2024-02-21T10:35:25;53.37;;;4.30;;
2838;SDS011;1427;48.510;9.060;2024-02-21T10:37:55;47.33;;;4.63;;
2838;SDS011;1427;48.510;9.060;2024-02-21T10:40:23;47.90;;;3.60;;
2838;SDS011;1427;48.510;9.060;2024-02-21T10:42:55;48.37;;;4.57;;
2838;SDS011;1427;48.510;9.060;2024-02-21T10:45:29;48.10;;;4.43;;
2838;SDS011;1427;48.510;9.060;2024-02-21T10:48:01;47.10;;;4.40;;
2838;SDS011;1427;48.510;9.060;2024-02-21T10:50:40;48.40;;;4.57;;
2838;SDS011;1427;48.510;9.060;2024-02-21T10:53:20;47.63;;;4.50;;
2838;SDS011;1427;48.510;9.060;2024-02-21T10:55:56;47.87;;;4.30;;
2838;SDS011;1427;48.510;9.060;2024-02-21T10:58:40;47.27;;;3.73;;
2838;SDS011;1427;48.510;9.060;2024-02-21T11:01:10;47.73;;;4.27;;
2838;SDS011;1427;48.510;9.060;2024-02-21T11:03:41;48.60;;;4.87;;
2838;SDS011;1427;48.510;9.060;2024-02-21T11:06:10;47.70;;;4.33;;
2838;SDS011;1427;48.510;9.060;2024-02-21T11:08:41;47.33;;;4.27;;
2838;SDS011;1427;48.510;9.060;2024-02-21T11:11:11;47.77;;;4.37;;
2838;SDS011;1427;48.510;9.060;2024-02-21T11:14:08;48.70;;;5.43;;
2838;SDS011;1427;48.510;9.060;2024-02-21T11:16:37;48.80;;;4.60;;
2838;SDS011;1427;48.510;9.060;2024-02-21T11:19:07;48.50;;;4.53;;
2838;SDS011;1427;48.510;9.060;2024-02-21T11:21:37;47.30;;;4.10;;
2838;SDS011;1427;48.510;9.060;2024-02-21T11:24:05;47.83;;;4.40;;
2838;SDS011;1427;48.510;9.060;2024-02-21T11:26:36;48.70;;;5.27;;
2838;SDS011;1427;48.510;9.060;2024-02-21T11:29:05;49.80;;;5.40;;
2838;SDS011;1427;48.510;9.060;2024-02-21T11:31:40;51.00;;;5.53;;
2838;SDS011;1427;48.510;9.060;2024-02-21T11:34:09;48.30;;;4.80;;
2838;SDS011;1427;48.510;9.060;2024-02-21T11:36:46;50.60;;;5.80;;
2838;SDS011;1427;48.510;9.060;2024-02-21T11:39:18;47.87;;;4.83;;
2838;SDS011;1427;48.510;9.060;2024-02-21T11:41:47;48.27;;;4.07;;
2838;SDS011;1427;48.510;9.060;2024-02-21T11:44:27;49.50;;;5.23;;
2838;SDS011;1427;48.510;9.060;2024-02-21T11:46:56;48.43;;;4.90;;
2838;SDS011;1427;48.510;9.060;2024-02-21T11:49:25;48.60;;;4.70;;
2838;SDS011;1427;48.510;9.060;2024-02-21T11:51:59;56.87;;;7.47;;
2838;SDS011;1427;48.510;9.060;2024-02-21T11:54:30;52.63;;;6.07;;
2838;SDS011;1427;48.510;9.060;2024-02-21T11:56:59;56.35;;;6.65;;
2838;SDS011;1427;48.510;9.060;2024-02-21T11:59:29;49.30;;;4.23;;
2838;SDS011;1427;48.510;9.060;2024-02-21T12:01:59;47.30;;;4.27;;
2838;SDS011;1427;48.510;9.060;2024-02-21T12:04:29;48.30;;;3.70;;
2838;SDS011;1427;48.510;9.060;2024-02-21T12:06:58;47.80;;;4.13;;
2838;SDS011;1427;48.510;9.060;2024-02-21T12:09:27;50.27;;;5.47;;
2838;SDS011;1427;48.510;9.060;2024-02-21T12:11:59;52.00;;;5.63;;
2838;SDS011;1427;48.510;9.060;2024-02-21T12:14:29;51.20;;;6.10;;
2838;SDS011;1427;48.510;9.060;2024-02-21T12:17:00;50.67;;;5.63;;
2838;SDS011;1427;48.510;9.060;2024-02-21T12:19:30;48.50;;;4.83;;
2838;SDS011;1427;48.510;9.060;2024-02-21T12:22:00;58.13;;;5.43;;
2838;SDS011;1427;48.510;9.060;2024-02-21T12:24:32;47.60;;;4.50;;
2838;SDS011;1427;48.510;9.060;2024-02-21T12:27:02;52.22;;;4.68;;
2838;SDS011;1427;48.510;9.060;2024-02-21T12:29:31;48.30;;;4.13;;
2838;SDS011;1427;48.510;9.060;2024-02-21T12:32:01;48.60;;;3.80;;
2838;SDS011;1427;48.510;9.060;2024-02-21T12:34:30;48.23;;;5.13;;
2838;SDS011;1427;48.510;9.060;2024-02-21T12:37:18;48.10;;;4.60;;
2838;SDS011;1427;48.510;9.060;2024-02-21T12:39:47;47.90;;;4.50;;
2838;SDS011;1427;48.510;9.060;2024-02-21T12:42:15;47.63;;;4.40;;
2838;SDS011;1427;48.510;9.060;2024-02-21T12:44:44;47.03;;;4.10;;
2838;SDS011;1427;48.510;9.060;2024-02-21T12:47:13;47.57;;;3.93;;
2838;SDS011;1427;48.510;9.060;2024-02-21T12:49:41;52.77;;;5.30;;
2838;SDS011;1427;48.510;9.060;2024-02-21T12:52:11;47.27;;;4.20;;
2838;SDS011;1427;48.510;9.060;2024-02-21T12:54:40;46.90;;;3.67;;
2838;SDS011;1427;48.510;9.060;2024-02-21T12:57:09;47.23;;;4.53;;
2838;SDS011;1427;48.510;9.060;2024-02-21T12:59:37;50.20;;;4.90;;
2838;SDS011;1427;48.510;9.060;2024-02-21T13:02:05;47.70;;;5.27;;
2838;SDS011;1427;48.510;9.060;2024-02-21T13:04:36;49.10;;;5.30;;
2838;SDS011;1427;48.510;9.060;2024-02-21T13:07:07;46.90;;;4.17;;
2838;SDS011;1427;48.510;9.060;2024-02-21T13:09:35;47.27;;;4.10;;
2838;SDS011;1427;48.510;9.060;2024-02-21T13:12:04;48.10;;;4.77;;
2838;SDS011;1427;48.510;9.060;2024-02-21T13:14:32;47.57;;;4.80;;
2838;SDS011;1427;48.510;9.060;2024-02-21T13:17:01;48.30;;;4.67;;
2838;SDS011;1427;48.510;9.060;2024-02-21T13:19:30;47.37;;;4.47;;
2838;SDS011;1427;48.510;9.060;2024-02-21T13:21:59;49.90;;;4.60;;
2838;SDS011;1427;48.510;9.060;2024-02-21T13:24:29;47.50;;;4.10;;
2838;SDS011;1427;48.510;9.060;2024-02-21T13:26:57;47.37;;;4.63;;
2838;SDS011;1427;48.510;9.060;2024-02-21T13:29:25;47.47;;;4.50;;
2838;SDS011;1427;48.510;9.060;2024-02-21T13:31:54;47.90;;;4.87;;
2838;SDS011;1427;48.510;9.060;2024-02-21T13:34:23;48.10;;;5.43;;
2838;SDS011;1427;48.510;9.060;2024-02-21T13:36:52;47.80;;;4.73;;
2838;SDS011;1427;48.510;9.060;2024-02-21T13:39:21;48.47;;;4.13;;
2838;SDS011;1427;48.510;9.060;2024-02-21T13:41:49;46.87;;;3.97;;
2838;SDS011;1427;48.510;9.060;2024-02-21T13:44:17;47.23;;;4.53;;
2838;SDS011;1427;48.510;9.060;2024-02-21T13:46:45;48.20;;;4.73;;
2838;SDS011;1427;48.510;9.060;2024-02-21T13:49:13;55.00;;;4.43;;
2838;SDS011;1427;48.510;9.060;2024-02-21T13:51:42;49.50;;;4.93;;
2838;SDS011;1427;48.510;9.060;2024-02-21T13:54:11;50.10;;;6.07;;
2838;SDS011;1427;48.510;9.060;2024-02-21T13:56:44;48.07;;;4.40;;
2838;SDS011;1427;48.510;9.060;2024-02-21T13:59:12;49.07;;;4.57;;
2838;SDS011;1427;48.510;9.060;2024-02-21T14:01:40;48.87;;;5.60;;
2838;SDS011;1427;48.510;9.060;2024-02-21T14:04:09;50.90;;;5.40;;
2838;SDS011;1427;48.510;9.060;2024-02-21T14:06:38;47.73;;;5.20;;
2838;SDS011;1427;48.510;9.060;2024-02-21T14:09:09;47.77;;;4.80;;
2838;SDS011;1427;48.510;9.060;2024-02-21T14:11:38;47.90;;;4.70;;
2838;SDS011;1427;48.510;9.060;2024-02-21T14:14:09;47.67;;;5.00;;
2838;SDS011;1427;48.510;9.060;2024-02-21T14:16:37;48.40;;;5.53;;
2838;SDS011;1427;48.510;9.060;2024-02-21T14:19:05;47.00;;;4.33;;
2838;SDS011;1427;48.510;9.060;2024-02-21T14:21:35;52.03;;;5.13;;
2838;SDS011;1427;48.510;9.060;2024-02-21T14:24:04;47.37;;;4.63;;
2838;SDS011;1427;48.510;9.060;2024-02-21T14:26:32;47.57;;;4.57;;
2838;SDS011;1427;48.510;9.060;2024-02-21T14:29:02;48.20;;;5.00;;
2838;SDS011;1427;48.510;9.060;2024-02-21T14:31:32;47.50;;;4.17;;
2838;SDS011;1427;48.510;9.060;2024-02-21T14:34:00;48.03;;;4.40;;
2838;SDS011;1427;48.510;9.060;2024-02-21T14:36:29;50.57;;;5.13;;
2838;SDS011;1427;48.510;9.060;2024-02-21T14:38:57;48.53;;;4.83;;
2838;SDS011;1427;48.510;9.060;2024-02-21T14:41:25;52.30;;;5.73;;
2838;SDS011;1427;48.510;9.060;2024-02-21T14:43:54;51.40;;;4.80;;
2838;SDS011;1427;48.510;9.060;2024-02-21T14:46:24;50.30;;;7.50;;
2838;SDS011;1427;48.510;9.060;2024-02-21T14:48:55;47.40;;;4.30;;
2838;SDS011;1427;48.510;9.060;2024-02-21T14:51:24;48.93;;;5.23;;
2838;SDS011;1427;48.510;9.060;2024-02-21T14:53:52;46.77;;;4.37;;
2838;SDS011;1427;48.510;9.060;2024-02-21T14:56:21;55.00;;;5.10;;
2838;SDS011;1427;48.510;9.060;2024-02-21T14:58:50;48.47;;;4.47;;
2838;SDS011;1427;48.510;9.060;2024-02-21T15:01:23;50.53;;;5.03;;
2838;SDS011;1427;48.510;9.060;2024-02-21T15:03:51;47.93;;;5.07;;
2838;SDS011;1427;48.510;9.060;2024-02-21T15:06:20;50.70;;;5.63;;
2838;SDS011;1427;48.510;9.060;2024-02-21T15:08:48;47.80;;;4.50;;
2838;SDS011;1427;48.510;9.060;2024-02-21T15:11:18;48.30;;;5.37;;
2838;SDS011;1427;48.510;9.060;2024-02-21T15:13:46;55.67;;;6.17;;
2838;SDS011;1427;48.510;9.060;2024-02-21T15:16:14;56.87;;;5.60;;
2838;SDS011;1427;48.510;9.060;2024-02-21T15:18:43;49.87;;;6.03;;
2838;SDS011;1427;48.510;9.060;2024-02-21T15:21:11;48.20;;;3.97;;
2838;SDS011;1427;48.510;9.060;2024-02-21T15:23:41;47.40;;;4.40;;
2838;SDS011;1427;48.510;9.060;2024-02-21T15:26:10;47.70;;;4.00;;
2838;SDS011;1427;48.510;9.060;2024-02-21T15:28:40;49.80;;;4.03;;